Startpagina
METAR-TAF:

METAR-TAF

Vliegvelden :

Tongatapu, Tonga

breedte: 21-14S, lengte: 175-09W, hoogte: 38 m

Actueel weer

Dit bericht is 58 minuten geleden gemaakt, om 08:00 UTC
Wind 5 kt uit het oostnoordoosten
Temperatuur 23°C
Vochtigheid 89%
Druk 1020 hPa
Zicht 10 km of meer
Weinig wolken op 1700 ft

METAR: NFTF 240800Z 07005KT 9999 FEW017 23/21 Q1020

Tijdstip: 21:58 (08:58 UTC)

Verwachting

Dit bericht is 3 uur en het 49 minuten geleden gemaakt, om 05:09 UTC
Verwachting geldig van 24 om 06 UTC tot 25 om 06 UTC
Wind 9 kt uit het oostnoordoosten
Zicht 10 km of meer
Weinig wolken op 1600 ft

TAF: NFTF 240509Z 2406/2506 06009KT 9999 FEW016

Waarnemingen en weersverwachtingen van meer dan 4000 vliegvelden (METAR en TAF).

De beschikbare stations zijn de gele en rode punten op de kaart.

Ga met uw muis naar het station om de naam te zien.

Klik dan om waarnemingen en weersverwachtingen te zien.

kaart wijzigen: klik op de groene knoppen met een zwart kruis om in te zoomen, op de groene knop met een streepje om uit te zoomen of op de groene pijlen voor aangrenzende kaarten.


METAR-TAF: